Time;durP1;ratioP1;P1;durP2;ratioP2;P2;SDS_P1;SDS_P2;PMS_P1;PMS_P2;Temp;Humidity;BMP_temperature;BMP_pressure;BME280_temperature;BME280_humidity;BME280_pressure;Samples;Min_cycle;Max_cycle;Signal;HPM_P1;HPM_P2
2022/09/13 00:00:42;;;;;;;5.55;1.55;;;17.60;99.90;;;;;;4985607;28;20034;-62
2022/09/13 00:03:10;;;;;;;3.65;1.42;;;17.60;99.90;;;;;;4988269;28;20034;-62
2022/09/13 00:05:37;;;;;;;8.93;1.58;;;17.60;99.90;;;;;;4986338;28;20040;-62
2022/09/13 00:08:04;;;;;;;2.83;1.40;;;17.70;99.90;;;;;;4991828;28;20085;-63
2022/09/13 00:10:33;;;;;;;2.97;1.10;;;17.70;99.90;;;;;;4991086;28;20034;-61
2022/09/13 00:12:59;;;;;;;2.65;1.40;;;17.70;99.90;;;;;;4992036;28;20514;-62
2022/09/13 00:15:24;;;;;;;6.53;1.98;;;17.70;99.90;;;;;;4989072;28;20030;-63
2022/09/13 00:17:50;;;;;;;6.68;1.70;;;17.70;99.90;;;;;;4991678;28;20112;-61
2022/09/13 00:20:16;;;;;;;5.18;1.83;;;17.60;99.90;;;;;;4988261;28;20030;-61
2022/09/13 00:22:42;;;;;;;9.68;2.03;;;17.60;99.90;;;;;;4992057;28;20788;-62
2022/09/13 00:25:08;;;;;;;3.28;1.67;;;17.60;99.90;;;;;;4990481;28;20068;-64
2022/09/13 00:27:35;;;;;;;5.07;2.28;;;17.70;99.90;;;;;;4983426;28;20026;-61
2022/09/13 00:30:05;;;;;;;3.17;1.65;;;17.70;99.90;;;;;;4992738;28;20049;-61
2022/09/13 00:32:33;;;;;;;4.10;1.63;;;17.70;99.90;;;;;;4990934;28;20109;-62
2022/09/13 00:34:59;;;;;;;4.05;1.55;;;17.80;99.90;;;;;;4990719;28;20054;-62
2022/09/13 00:37:25;;;;;;;4.75;1.70;;;17.80;99.90;;;;;;4982695;28;20034;-62
2022/09/13 00:39:50;;;;;;;6.55;1.80;;;17.90;99.90;;;;;;4990434;28;20053;-61
2022/09/13 00:42:16;;;;;;;3.00;1.90;;;17.90;99.90;;;;;;4990233;28;20113;-62
2022/09/13 00:44:56;;;;;;;2.15;1.40;;;17.90;99.90;;;;;;4992084;28;20105;-62
2022/09/13 00:47:36;;;;;;;3.95;1.40;;;17.90;99.90;;;;;;4990500;28;20073;-61
2022/09/13 00:50:35;;;;;;;2.47;1.50;;;17.90;99.90;;;;;;4992283;28;20034;-61
2022/09/13 00:53:12;;;;;;;6.88;1.60;;;18.00;99.90;;;;;;4987485;28;20030;-62
2022/09/13 00:55:53;;;;;;;2.47;1.52;;;17.90;99.90;;;;;;4986088;28;20026;-62
2022/09/13 00:58:32;;;;;;;6.83;2.17;;;17.90;99.90;;;;;;4986787;28;20085;-61
2022/09/13 01:01:00;;;;;;;2.00;1.48;;;17.90;99.90;;;;;;4991134;28;20034;-63
2022/09/13 01:03:30;;;;;;;2.55;1.80;;;17.90;99.90;;;;;;4990144;28;20038;-62
2022/09/13 01:06:14;;;;;;;4.57;1.60;;;17.90;99.90;;;;;;4991942;28;20097;-61
2022/09/13 01:08:42;;;;;;;5.93;2.10;;;17.90;99.90;;;;;;4990258;28;20042;-61
2022/09/13 01:11:33;;;;;;;12.35;2.58;;;17.90;99.90;;;;;;4990327;28;20030;-61
2022/09/13 01:13:59;;;;;;;4.97;2.67;;;17.80;99.90;;;;;;4982362;28;20031;-62
2022/09/13 01:16:25;;;;;;;3.35;2.20;;;17.90;99.90;;;;;;4988603;28;20101;-62
2022/09/13 01:18:51;;;;;;;6.55;2.42;;;17.90;99.90;;;;;;4990431;28;20129;-61
2022/09/13 01:21:47;;;;;;;5.43;2.65;;;18.00;99.90;;;;;;4986183;28;20394;-61
2022/09/13 01:24:41;;;;;;;5.18;2.35;;;18.00;99.90;;;;;;4989254;28;20053;-61
2022/09/13 01:27:27;;;;;;;5.55;2.00;;;18.00;99.90;;;;;;4989303;28;20026;-61
2022/09/13 01:29:56;;;;;;;10.30;2.42;;;17.90;99.90;;;;;;4991540;28;20069;-61
2022/09/13 01:32:56;;;;;;;7.10;2.22;;;17.90;99.90;;;;;;4989096;28;20031;-61
2022/09/13 01:35:48;;;;;;;6.32;2.40;;;17.90;99.90;;;;;;4948089;29;20066;-62
2022/09/13 01:38:32;;;;;;;2.80;2.38;;;17.80;99.90;;;;;;4941018;29;20066;-62
2022/09/13 01:40:57;;;;;;;4.63;2.90;;;17.90;99.90;;;;;;4944755;29;20066;-62
2022/09/13 01:43:38;;;;;;;6.70;2.75;;;17.90;99.90;;;;;;4946130;29;20035;-61
2022/09/13 01:46:12;;;;;;;3.05;2.28;;;17.90;99.90;;;;;;4949796;29;20035;-61
2022/09/13 01:48:47;;;;;;;5.70;2.67;;;17.90;99.90;;;;;;4947111;29;20035;-62
2022/09/13 01:51:35;;;;;;;5.10;2.22;;;17.80;99.90;;;;;;4942686;29;20031;-61
2022/09/13 01:54:25;;;;;;;7.25;2.53;;;17.80;99.90;;;;;;4949914;29;20031;-61
2022/09/13 01:56:57;;;;;;;5.00;2.92;;;17.70;99.90;;;;;;4945425;29;20162;-62
2022/09/13 02:00:01;;;;;;;6.70;2.38;;;17.70;99.90;;;;;;4948674;29;20073;-62
2022/09/13 02:02:51;;;;;;;3.17;2.10;;;17.60;99.90;;;;;;4942573;29;20039;-61
2022/09/13 02:06:07;;;;;;;7.40;3.13;;;17.60;99.90;;;;;;4948522;29;20499;-61
2022/09/13 02:09:01;;;;;;;6.65;2.70;;;17.60;99.90;;;;;;4883783;29;20848;-61
2022/09/13 02:11:28;;;;;;;8.48;2.88;;;17.70;99.90;;;;;;4900774;29;20031;-61
2022/09/13 02:13:56;;;;;;;4.30;3.15;;;17.60;99.90;;;;;;4931097;29;20516;-62
2022/09/13 02:16:32;;;;;;;5.35;2.67;;;17.60;99.90;;;;;;4929394;29;20622;-63
2022/09/13 02:19:07;;;;;;;9.25;3.30;;;17.60;99.90;;;;;;4930503;29;20122;-62
2022/09/13 02:21:38;;;;;;;7.10;2.97;;;17.60;99.90;;;;;;4929132;29;20035;-62
2022/09/13 02:24:10;;;;;;;4.57;2.55;;;17.60;99.90;;;;;;4930502;29;20036;-62
2022/09/13 02:26:37;;;;;;;;;;;17.50;99.90;;;;;;4928250;29;20039;-62
2022/09/13 02:29:09;;;;;;;3.40;2.55;;;17.50;99.90;;;;;;4921877;29;20422;-62
2022/09/13 02:31:50;;;;;;;7.13;2.85;;;17.50;99.90;;;;;;4928574;29;20037;-62
2022/09/13 02:34:22;;;;;;;5.72;3.13;;;17.40;99.90;;;;;;4928889;29;20032;-62
2022/09/13 02:36:49;;;;;;;4.40;2.70;;;17.40;99.90;;;;;;4930373;29;20035;-62
2022/09/13 02:39:18;;;;;;;10.32;4.68;;;17.40;99.90;;;;;;4956966;28;20074;-62
2022/09/13 02:41:56;;;;;;;4.95;3.22;;;17.30;99.90;;;;;;4987871;28;20116;-61
2022/09/13 02:44:38;;;;;;;7.20;3.08;;;17.40;99.90;;;;;;4986062;28;20061;-61
2022/09/13 02:47:21;;;;;;;4.30;3.20;;;17.30;99.90;;;;;;4986935;28;20032;-61
2022/09/13 02:50:08;;;;;;;9.32;2.95;;;17.40;99.90;;;;;;4983517;28;20050;-61
2022/09/13 02:52:33;;;;;;;4.38;2.70;;;17.40;99.90;;;;;;4985436;28;20033;-61
2022/09/13 02:55:02;;;;;;;6.63;3.33;;;17.30;99.90;;;;;;4990150;28;20030;-61
2022/09/13 02:57:52;;;;;;;5.47;2.80;;;17.30;99.90;;;;;;4987755;28;20028;-62
2022/09/13 03:00:18;;;;;;;6.78;4.05;;;17.30;99.90;;;;;;4980523;28;20509;-62
2022/09/13 03:02:47;;;;;;;7.63;3.22;;;17.30;99.90;;;;;;4989472;28;20109;-62
2022/09/13 03:05:13;;;;;;;4.60;2.92;;;17.30;99.90;;;;;;4985684;28;20030;-63
2022/09/13 03:07:39;;;;;;;5.47;3.00;;;17.30;99.90;;;;;;4989980;28;20122;-63
2022/09/13 03:10:12;;;;;;;7.75;2.70;;;17.30;99.90;;;;;;4989598;28;20410;-63
2022/09/13 03:13:10;;;;;;;5.38;2.45;;;17.30;99.90;;;;;;4988896;28;20497;-62
2022/09/13 03:15:58;;;;;;;8.73;2.83;;;17.30;99.90;;;;;;4982123;28;20049;-63
2022/09/13 03:18:36;;;;;;;6.68;2.70;;;17.30;99.90;;;;;;4979329;28;20022;-62
2022/09/13 03:21:06;;;;;;;3.55;2.47;;;17.30;99.90;;;;;;4989777;28;20030;-62
2022/09/13 03:23:32;;;;;;;4.82;2.63;;;17.30;99.90;;;;;;4987869;28;20026;-63
2022/09/13 03:26:24;;;;;;;6.00;2.83;;;17.30;99.90;;;;;;4985949;28;20081;-63
2022/09/13 03:29:13;;;;;;;5.45;2.50;;;17.30;99.90;;;;;;4984996;28;20043;-62
2022/09/13 03:31:56;;;;;;;6.65;2.40;;;17.40;99.90;;;;;;4987658;28;20034;-62
2022/09/13 03:34:46;;;;;;;4.88;2.60;;;17.50;99.90;;;;;;4986100;28;20026;-63
2022/09/13 03:37:23;;;;;;;6.88;2.03;;;17.40;99.90;;;;;;4988784;28;20053;-62
2022/09/13 03:39:59;;;;;;;5.72;2.30;;;17.40;99.90;;;;;;4981484;28;20046;-63
2022/09/13 03:42:38;;;;;;;5.25;2.80;;;17.50;99.90;;;;;;4989079;28;20033;-62
2022/09/13 03:45:05;;;;;;;5.53;2.55;;;17.50;99.90;;;;;;4993216;28;20034;-62
2022/09/13 03:47:35;;;;;;;6.85;2.33;;;17.60;99.90;;;;;;4991692;28;20036;-62
2022/09/13 03:50:03;;;;;;;3.67;2.15;;;17.60;99.90;;;;;;4991679;28;20042;-62
2022/09/13 03:52:29;;;;;;;6.82;2.35;;;17.60;99.90;;;;;;4991125;28;20474;-62
2022/09/13 03:54:56;;;;;;;6.30;2.30;;;17.60;99.90;;;;;;4990962;28;20031;-63
2022/09/13 03:57:22;;;;;;;6.78;2.28;;;17.60;99.90;;;;;;4989788;28;20512;-62
2022/09/13 03:59:51;;;;;;;3.33;2.00;;;17.60;99.90;;;;;;4991838;28;20027;-62
2022/09/13 04:02:18;;;;;;;3.30;2.00;;;17.60;99.90;;;;;;4991089;28;20070;-62
2022/09/13 04:04:45;;;;;;;3.33;2.00;;;17.50;99.90;;;;;;4993103;28;20030;-63
2022/09/13 04:07:13;;;;;;;5.53;2.63;;;17.50;99.90;;;;;;4992522;28;20083;-63
2022/09/13 04:09:39;;;;;;;5.80;2.85;;;17.50;99.90;;;;;;4992091;28;20053;-62
2022/09/13 04:12:05;;;;;;;7.35;3.08;;;17.50;99.90;;;;;;4992551;28;20027;-62
2022/09/13 04:14:32;;;;;;;6.18;2.35;;;17.40;99.90;;;;;;4990348;28;20034;-64
2022/09/13 04:16:58;;;;;;;21.23;2.95;;;17.40;99.90;;;;;;4991820;28;20116;-62
2022/09/13 04:19:24;;;;;;;5.00;2.25;;;17.50;99.90;;;;;;4990912;28;20109;-62
2022/09/13 04:21:51;;;;;;;6.63;2.78;;;17.40;99.90;;;;;;4992563;28;20030;-63
2022/09/13 04:24:18;;;;;;;4.55;2.85;;;17.40;99.90;;;;;;4983953;28;20041;-63
2022/09/13 04:26:47;;;;;;;4.20;2.58;;;17.40;99.90;;;;;;4991941;28;20050;-62
2022/09/13 04:29:13;;;;;;;6.80;2.60;;;17.50;99.90;;;;;;4990401;28;20062;-62
2022/09/13 04:31:39;;;;;;;4.95;2.88;;;17.50;99.90;;;;;;4989005;28;20065;-62
2022/09/13 04:34:05;;;;;;;10.35;3.03;;;17.50;99.90;;;;;;4992561;28;20062;-63
2022/09/13 04:36:32;;;;;;;5.03;2.72;;;17.40;99.90;;;;;;4988814;28;20026;-62
2022/09/13 04:38:59;;;;;;;5.68;2.60;;;17.50;99.90;;;;;;4988186;28;20108;-62
2022/09/13 04:41:25;;;;;;;5.88;2.88;;;17.50;99.90;;;;;;4990339;28;20030;-62
2022/09/13 04:43:51;;;;;;;6.38;2.70;;;17.50;99.90;;;;;;4991773;28;20117;-63
2022/09/13 04:46:17;;;;;;;7.80;2.72;;;17.50;99.90;;;;;;4989867;28;20158;-62
2022/09/13 04:48:50;;;;;;;5.03;2.42;;;17.50;99.90;;;;;;4992046;28;20087;-62
2022/09/13 04:51:17;;;;;;;7.55;3.08;;;17.60;99.90;;;;;;4990336;28;20022;-63
2022/09/13 04:53:44;;;;;;;12.88;3.53;;;17.60;99.90;;;;;;4989543;28;20038;-62
2022/09/13 04:56:11;;;;;;;8.15;3.40;;;17.60;99.90;;;;;;4991745;28;20117;-62
2022/09/13 04:58:37;;;;;;;5.53;2.47;;;17.60;99.90;;;;;;4985756;28;20403;-62
2022/09/13 05:01:04;;;;;;;4.47;2.35;;;17.70;99.90;;;;;;4990814;28;20026;-62
2022/09/13 05:03:31;;;;;;;4.40;2.60;;;17.70;99.90;;;;;;4990189;28;20168;-62
2022/09/13 05:06:19;;;;;;;6.97;3.05;;;17.60;99.90;;;;;;4991500;28;20029;-63
2022/09/13 05:08:51;;;;;;;5.97;3.00;;;17.60;99.90;;;;;;4991996;28;20069;-61
2022/09/13 05:11:17;;;;;;;;;;;17.60;99.90;;;;;;4989620;28;20113;-62
2022/09/13 05:13:51;;;;;;;16.10;4.85;;;17.60;99.90;;;;;;4987742;28;19999;-62
2022/09/13 05:16:18;;;;;;;6.65;4.15;;;17.70;99.90;;;;;;4988331;28;20034;-62
2022/09/13 05:18:44;;;;;;;8.00;3.03;;;17.70;99.90;;;;;;4990981;28;20029;-62
2022/09/13 05:21:09;;;;;;;7.78;3.83;;;17.80;99.90;;;;;;4991249;28;20026;-62
2022/09/13 05:23:35;;;;;;;10.48;3.15;;;17.80;99.90;;;;;;4987216;28;20023;-61
2022/09/13 05:26:03;;;;;;;10.40;3.70;;;17.80;99.90;;;;;;4990918;28;20034;-62
2022/09/13 05:28:32;;;;;;;7.60;3.58;;;17.90;99.90;;;;;;4989374;28;20031;-62
2022/09/13 05:31:00;;;;;;;7.13;3.92;;;17.90;99.90;;;;;;4991621;28;20536;-61
2022/09/13 05:33:27;;;;;;;10.00;4.07;;;18.00;99.90;;;;;;4988302;28;20125;-61
2022/09/13 05:35:53;;;;;;;7.85;3.17;;;18.00;99.90;;;;;;4990931;28;20397;-64
2022/09/13 05:38:20;;;;;;;9.52;3.58;;;18.00;99.90;;;;;;4989128;28;20050;-62
2022/09/13 05:40:46;;;;;;;8.32;3.60;;;18.10;99.90;;;;;;4991118;28;20034;-62
2022/09/13 05:43:13;;;;;;;9.75;4.10;;;18.10;99.90;;;;;;4990966;28;20034;-63
2022/09/13 05:45:40;;;;;;;8.15;3.50;;;18.10;99.90;;;;;;4990737;28;20470;-63
2022/09/13 05:48:06;;;;;;;7.07;3.78;;;18.10;99.90;;;;;;4988196;28;20096;-62
2022/09/13 05:50:36;;;;;;;7.45;3.97;;;18.10;99.90;;;;;;4987914;28;20030;-62
2022/09/13 05:53:02;;;;;;;10.60;4.10;;;18.10;99.90;;;;;;4983865;28;20461;-63
2022/09/13 05:55:28;;;;;;;12.88;4.00;;;18.30;99.90;;;;;;4989317;28;20453;-63
2022/09/13 05:57:54;;;;;;;7.63;4.75;;;18.20;99.90;;;;;;4988985;28;20030;-63
2022/09/13 06:00:19;;;;;;;8.48;4.85;;;18.30;99.90;;;;;;4989550;28;20030;-62
2022/09/13 06:02:46;;;;;;;7.45;3.92;;;18.40;99.90;;;;;;4987506;28;20418;-62
2022/09/13 06:05:11;;;;;;;11.10;6.43;;;18.30;99.90;;;;;;4986074;28;20394;-63
2022/09/13 06:07:41;;;;;;;7.95;5.35;;;18.30;99.90;;;;;;4987243;28;20033;-62
2022/09/13 06:10:09;;;;;;;9.07;5.28;;;18.30;99.90;;;;;;4989385;28;20040;-63
2022/09/13 06:12:35;;;;;;;6.90;4.95;;;18.40;99.90;;;;;;4986930;28;20364;-65
2022/09/13 06:15:02;;;;;;;11.05;5.75;;;18.50;99.90;;;;;;4990269;28;20041;-63
2022/09/13 06:17:28;;;;;;;12.52;4.93;;;18.50;99.90;;;;;;4979099;28;20030;-63
2022/09/13 06:19:53;;;;;;;6.15;4.25;;;18.60;99.90;;;;;;4990296;28;20110;-62
2022/09/13 06:22:19;;;;;;;10.15;5.35;;;18.50;99.90;;;;;;4987187;28;20022;-61
2022/09/13 06:24:45;;;;;;;13.48;5.35;;;18.60;99.90;;;;;;4989799;28;20037;-62
2022/09/13 06:27:10;;;;;;;12.13;5.20;;;18.60;99.90;;;;;;4988713;28;20030;-62
2022/09/13 06:29:36;;;;;;;10.65;6.60;;;18.70;99.90;;;;;;4988532;28;20075;-63
2022/09/13 06:32:03;;;;;;;9.00;6.00;;;18.70;99.90;;;;;;4989131;28;20034;-62
2022/09/13 06:34:29;;;;;;;11.52;6.32;;;18.80;99.90;;;;;;4988017;28;20462;-62
2022/09/13 06:36:55;;;;;;;12.15;7.10;;;18.80;99.90;;;;;;4988653;28;20026;-63
2022/09/13 06:39:21;;;;;;;10.57;5.80;;;18.90;99.90;;;;;;4987398;28;20054;-62
2022/09/13 06:41:46;;;;;;;12.65;7.45;;;18.90;99.90;;;;;;4989315;28;20033;-63
2022/09/13 06:44:13;;;;;;;8.57;6.60;;;19.00;99.90;;;;;;4987013;28;20030;-63
2022/09/13 06:46:39;;;;;;;12.82;6.38;;;19.10;99.90;;;;;;4987835;28;20121;-63
2022/09/13 06:49:06;;;;;;;9.45;7.65;;;19.10;99.90;;;;;;4989772;28;20035;-63
2022/09/13 06:51:34;;;;;;;12.50;7.47;;;19.10;99.90;;;;;;4982334;28;20110;-62
2022/09/13 06:54:00;;;;;;;13.80;7.95;;;19.10;99.90;;;;;;4981389;28;20022;-65
2022/09/13 06:56:28;;;;;;;13.35;7.68;;;19.10;99.90;;;;;;4980740;28;20501;-63
2022/09/13 06:58:58;;;;;;;10.25;7.65;;;19.20;99.90;;;;;;4988975;28;20034;-63
2022/09/13 07:01:30;;;;;;;13.32;7.97;;;19.30;99.90;;;;;;4985921;28;20509;-63
2022/09/13 07:04:00;;;;;;;12.52;8.95;;;19.30;99.90;;;;;;4988687;28;20038;-62
2022/09/13 07:06:29;;;;;;;14.15;8.57;;;19.30;99.90;;;;;;4984290;28;20474;-64
2022/09/13 07:08:57;;;;;;;11.10;8.60;;;19.40;99.90;;;;;;4982257;28;20045;-64
2022/09/13 07:11:25;;;;;;;18.05;9.60;;;19.40;99.90;;;;;;4986715;28;20455;-64
2022/09/13 07:13:56;;;;;;;12.45;9.10;;;19.40;99.90;;;;;;4988800;28;20030;-64
2022/09/13 07:16:26;;;;;;;11.30;8.23;;;19.50;99.90;;;;;;4987466;28;20022;-63
2022/09/13 07:18:53;;;;;;;17.65;9.90;;;19.60;99.90;;;;;;4991834;28;20066;-63
2022/09/13 07:21:21;;;;;;;11.65;8.57;;;19.60;99.90;;;;;;4990352;28;20018;-63
2022/09/13 07:23:47;;;;;;;12.02;9.23;;;19.70;99.90;;;;;;4993334;28;20060;-63
2022/09/13 07:26:14;;;;;;;16.10;8.88;;;19.70;99.90;;;;;;4992644;28;20026;-65
2022/09/13 07:28:41;;;;;;;12.50;9.30;;;19.70;99.90;;;;;;4992908;28;20061;-63
2022/09/13 07:31:15;;;;;;;15.25;8.35;;;19.70;99.90;;;;;;4990972;28;20438;-63
2022/09/13 07:33:43;;;;;;;11.52;8.77;;;19.80;99.90;;;;;;4988956;28;20042;-62
2022/09/13 07:36:10;;;;;;;12.13;7.97;;;19.80;99.90;;;;;;4993046;28;20028;-61
2022/09/13 07:38:41;;;;;;;11.52;8.43;;;19.80;99.90;;;;;;4990771;28;20046;-62
2022/09/13 07:41:10;;;;;;;10.55;7.97;;;19.80;99.90;;;;;;4992095;28;22984;-61
2022/09/13 07:43:36;;;;;;;13.73;9.32;;;19.80;99.90;;;;;;4990368;28;20104;-61
2022/09/13 07:46:05;;;;;;;13.18;7.25;;;19.90;99.90;;;;;;4993035;28;20339;-62
2022/09/13 07:48:33;;;;;;;12.05;8.85;;;20.00;99.90;;;;;;4985228;28;20078;-61
2022/09/13 07:51:11;;;;;;;10.23;7.20;;;20.00;99.90;;;;;;4991757;28;20041;-63
2022/09/13 07:53:38;;;;;;;13.23;7.43;;;20.00;99.90;;;;;;4992199;28;20031;-62
2022/09/13 07:56:06;;;;;;;10.02;7.82;;;20.10;99.90;;;;;;4992326;28;20813;-62
2022/09/13 07:58:34;;;;;;;10.25;7.50;;;20.10;99.90;;;;;;4991103;28;20041;-62
2022/09/13 08:01:07;;;;;;;10.77;7.68;;;20.20;99.90;;;;;;4992103;28;20030;-61
2022/09/13 08:03:34;;;;;;;10.30;7.97;;;20.10;99.90;;;;;;4980173;28;20022;-61
2022/09/13 08:06:01;;;;;;;9.10;6.60;;;20.10;99.90;;;;;;4992194;28;20508;-61
2022/09/13 08:08:27;;;;;;;10.93;7.03;;;20.10;99.90;;;;;;4989740;28;20104;-60
2022/09/13 08:10:53;;;;;;;9.30;6.20;;;20.20;99.90;;;;;;4991979;28;20034;-62
2022/09/13 08:13:19;;;;;;;11.38;6.50;;;20.20;99.90;;;;;;4990714;28;20077;-63
2022/09/13 08:15:45;;;;;;;8.57;5.85;;;20.20;99.90;;;;;;4991421;28;20435;-61
2022/09/13 08:18:11;;;;;;;9.25;6.35;;;20.20;99.90;;;;;;4991222;28;20034;-64
2022/09/13 08:20:38;;;;;;;13.18;5.82;;;20.20;99.90;;;;;;4988926;28;20129;-62
2022/09/13 08:23:05;;;;;;;8.13;6.15;;;20.20;99.90;;;;;;4989951;28;20113;-61
2022/09/13 08:25:35;;;;;;;6.35;5.72;;;20.30;99.90;;;;;;4991048;28;20112;-62
2022/09/13 08:28:05;;;;;;;9.65;5.93;;;20.20;99.90;;;;;;4989112;28;20027;-62
2022/09/13 08:30:34;;;;;;;11.77;5.38;;;20.20;99.90;;;;;;4979914;28;20106;-62
2022/09/13 08:33:01;;;;;;;10.70;5.85;;;20.20;99.90;;;;;;4987537;28;20062;-62
2022/09/13 08:35:28;;;;;;;7.63;5.20;;;20.20;99.90;;;;;;4985679;28;20494;-61
2022/09/13 08:37:53;;;;;;;8.82;5.47;;;20.20;99.90;;;;;;4996919;28;20022;-61
2022/09/13 08:40:20;;;;;;;8.43;5.82;;;20.10;99.90;;;;;;4983457;28;20034;-61
2022/09/13 08:43:19;;;;;;;10.00;7.53;;;20.10;99.90;;;;;;4987958;28;20907;-61
2022/09/13 08:46:04;;;;;;;5.97;5.38;;;20.00;99.90;;;;;;4991660;28;20042;-62
2022/09/13 08:48:35;;;;;;;5.38;4.88;;;20.00;99.90;;;;;;4990158;28;20037;-62
2022/09/13 08:51:06;;;;;;;7.40;5.72;;;20.00;99.90;;;;;;4990033;28;20045;-61
2022/09/13 08:53:46;;;;;;;9.55;6.65;;;20.00;99.90;;;;;;4991751;28;20429;-60
2022/09/13 08:56:21;;;;;;;6.97;4.85;;;20.00;99.90;;;;;;4990779;28;20382;-62
2022/09/13 08:59:25;;;;;;;10.77;6.20;;;20.00;99.90;;;;;;4987240;28;20036;-61
2022/09/13 09:02:00;;;;;;;9.98;5.38;;;20.10;99.90;;;;;;4985184;28;20386;-61
2022/09/13 09:04:26;;;;;;;6.10;5.15;;;20.10;99.90;;;;;;4988762;28;20056;-63
2022/09/13 09:07:32;;;;;;;10.45;5.13;;;20.10;99.90;;;;;;4991699;28;20509;-61
2022/09/13 09:10:18;;;;;;;11.43;6.75;;;20.20;99.90;;;;;;4975660;28;20102;-62
2022/09/13 09:12:49;;;;;;;11.55;4.75;;;20.30;99.90;;;;;;4991043;28;20783;-62
2022/09/13 09:15:25;;;;;;;11.85;6.55;;;20.40;99.90;;;;;;4982593;28;20041;-61
2022/09/13 09:18:10;;;;;;;8.38;4.72;;;20.60;99.90;;;;;;4990170;28;20117;-61
2022/09/13 09:20:39;;;;;;;7.70;4.30;;;20.70;99.90;;;;;;4989657;28;20042;-62
2022/09/13 09:23:13;;;;;;;7.20;4.22;;;20.70;99.90;;;;;;4988020;28;20044;-62
2022/09/13 09:25:39;;;;;;;6.40;4.00;;;20.80;99.90;;;;;;4989783;28;20034;-62
2022/09/13 09:28:16;;;;;;;7.65;3.83;;;20.80;99.90;;;;;;4980630;28;20426;-62
2022/09/13 09:31:03;;;;;;;6.82;3.42;;;20.80;99.90;;;;;;4983527;28;20038;-63
2022/09/13 09:33:59;;;;;;;6.97;3.50;;;20.80;99.90;;;;;;4987118;28;20046;-62
2022/09/13 09:36:41;;;;;;;5.65;3.33;;;20.70;99.90;;;;;;4987368;28;20437;-63
2022/09/13 09:39:11;;;;;;;6.22;3.58;;;20.60;99.90;;;;;;4977991;28;20050;-62
2022/09/13 09:41:37;;;;;;;8.48;3.42;;;20.60;99.90;;;;;;4984686;28;20034;-61
2022/09/13 09:44:23;;;;;;;6.32;3.35;;;20.50;99.90;;;;;;4990882;28;20028;-61
2022/09/13 09:47:01;;;;;;;4.07;2.85;;;20.40;99.90;;;;;;4986562;28;20058;-61
2022/09/13 09:50:35;;;;;;;7.18;3.72;;;20.40;99.90;;;;;;4987300;28;20125;-62
2022/09/13 09:52:52;;;;;;;4.65;3.03;;;20.30;99.90;;;;;;4982179;28;20045;-62
2022/09/13 09:55:28;;;;;;;5.15;3.30;;;20.20;99.90;;;;;;4976050;28;20573;-61
2022/09/13 09:57:58;;;;;;;9.75;3.05;;;20.10;99.90;;;;;;4990337;28;20023;-62
2022/09/13 10:00:34;;;;;;;3.63;2.70;;;20.00;99.90;;;;;;4980786;28;20034;-61
2022/09/13 10:03:17;;;;;;;4.68;3.00;;;19.90;99.90;;;;;;4989415;28;20375;-62
2022/09/13 10:05:43;;;;;;;4.50;3.00;;;19.80;99.90;;;;;;4987180;28;20041;-61
2022/09/13 10:08:34;;;;;;;7.00;3.33;;;19.80;99.90;;;;;;4990309;28;20033;-62
2022/09/13 10:11:00;;;;;;;7.70;3.25;;;19.90;99.90;;;;;;4987733;28;20030;-62
2022/09/13 10:13:28;;;;;;;5.30;2.72;;;20.00;99.90;;;;;;4988345;28;20039;-62
2022/09/13 10:16:00;;;;;;;9.55;3.05;;;20.00;99.90;;;;;;4989970;28;20089;-62
2022/09/13 10:18:26;;;;;;;;;;;20.10;99.90;;;;;;4980812;28;20018;-62
2022/09/13 10:21:18;;;;;;;8.57;3.45;;;20.20;99.90;;;;;;4990219;28;19936;-62
2022/09/13 10:23:52;;;;;;;7.80;2.60;;;20.20;99.90;;;;;;4981493;28;20560;-62
2022/09/13 10:26:23;;;;;;;4.13;2.50;;;20.30;99.90;;;;;;4988275;28;20038;-62
2022/09/13 10:29:01;;;;;;;6.72;3.08;;;20.30;99.90;;;;;;4979602;28;20037;-62
2022/09/13 10:31:30;;;;;;;3.90;2.60;;;20.30;99.90;;;;;;4986489;28;20042;-60
2022/09/13 10:34:14;;;;;;;5.55;2.35;;;20.30;99.90;;;;;;4989982;28;20560;-62
2022/09/13 10:37:06;;;;;;;4.68;2.40;;;20.20;99.90;;;;;;4985124;28;20036;-62
2022/09/13 10:39:35;;;;;;;6.45;2.63;;;20.40;99.90;;;;;;4982296;28;20038;-62
2022/09/13 10:42:02;;;;;;;3.63;2.08;;;20.60;99.90;;;;;;4980393;28;20482;-61
2022/09/13 10:44:45;;;;;;;5.80;2.53;;;20.70;99.90;;;;;;4987836;28;20027;-61
2022/09/13 10:47:43;;;;;;;6.25;2.90;;;20.70;99.90;;;;;;4983381;28;20500;-61
2022/09/13 10:50:34;;;;;;;6.50;2.85;;;20.70;99.90;;;;;;4985401;28;20038;-62
2022/09/13 10:53:02;;;;;;;4.43;2.80;;;20.60;99.90;;;;;;4987000;28;20467;-61
2022/09/13 10:55:36;;;;;;;5.50;2.88;;;20.40;99.90;;;;;;4987593;28;20034;-61
2022/09/13 10:58:02;;;;;;;5.30;2.72;;;20.40;99.90;;;;;;4987043;28;20036;-61
2022/09/13 11:00:38;;;;;;;5.18;3.10;;;20.30;99.90;;;;;;4986588;28;20114;-61
2022/09/13 11:03:25;;;;;;;4.43;3.05;;;20.30;99.90;;;;;;4989249;28;20106;-62
2022/09/13 11:06:27;;;;;;;4.72;3.20;;;20.10;99.90;;;;;;4988635;28;20030;-61
2022/09/13 11:09:03;;;;;;;6.20;2.65;;;20.10;99.90;;;;;;4988887;28;20043;-61
2022/09/13 11:11:47;;;;;;;4.15;2.75;;;20.10;99.90;;;;;;4981658;28;20026;-61
2022/09/13 11:14:16;;;;;;;11.15;3.67;;;20.00;99.90;;;;;;4988192;28;20042;-62
2022/09/13 11:17:07;;;;;;;6.95;3.63;;;20.10;99.90;;;;;;4984749;28;20092;-61
2022/09/13 11:19:42;;;;;;;3.42;2.75;;;20.00;99.90;;;;;;4986494;28;20076;-60
2022/09/13 11:22:33;;;;;;;7.65;3.45;;;19.90;99.90;;;;;;4987567;28;20037;-63
2022/09/13 11:25:28;;;;;;;5.78;3.55;;;19.90;99.90;;;;;;4985279;28;20042;-61
2022/09/13 11:28:25;;;;;;;8.52;4.10;;;20.00;99.90;;;;;;4986421;28;20031;-61
2022/09/13 11:31:12;;;;;;;8.27;3.70;;;20.00;99.90;;;;;;4982317;28;20030;-61
2022/09/13 11:33:40;;;;;;;11.65;3.70;;;20.10;99.90;;;;;;4986972;28;20052;-63
2022/09/13 11:36:15;;;;;;;5.20;3.67;;;20.00;99.90;;;;;;4986993;28;20034;-62
2022/09/13 11:39:08;;;;;;;5.50;3.63;;;20.00;99.90;;;;;;4989160;28;20105;-62
2022/09/13 11:42:01;;;;;;;4.20;3.78;;;20.10;99.90;;;;;;4983717;28;20052;-61
2022/09/13 11:44:35;;;;;;;8.63;3.47;;;20.20;99.90;;;;;;4981331;28;20042;-61
2022/09/13 11:47:43;;;;;;;5.85;3.72;;;20.20;99.90;;;;;;4989129;28;20043;-62
2022/09/13 11:50:38;;;;;;;7.78;3.70;;;20.20;99.90;;;;;;4960663;28;20039;-62
2022/09/13 11:53:35;;;;;;;4.25;3.78;;;20.20;99.90;;;;;;4961047;28;20038;-60
2022/09/13 11:56:05;;;;;;;6.07;3.75;;;20.40;99.90;;;;;;4966262;28;20055;-61
2022/09/13 11:58:58;;;;;;;5.22;3.35;;;20.40;99.90;;;;;;4964964;28;20066;-61
2022/09/13 12:01:28;;;;;;;5.90;4.00;;;20.60;99.90;;;;;;4965855;28;20113;-62
2022/09/13 12:04:14;;;;;;;6.38;4.00;;;21.00;99.90;;;;;;4970674;28;20034;-62
2022/09/13 12:06:44;;;;;;;10.35;4.25;;;21.20;99.90;;;;;;4969377;28;20043;-62
2022/09/13 12:09:15;;;;;;;6.28;4.10;;;21.40;99.90;;;;;;4970892;28;20070;-61
2022/09/13 12:11:47;;;;;;;6.68;3.78;;;21.50;99.90;;;;;;4970347;28;20034;-61
2022/09/13 12:14:16;;;;;;;;;;;21.60;99.90;;;;;;4960368;28;20035;-61
2022/09/13 12:16:45;;;;;;;7.57;4.15;;;21.60;99.90;;;;;;4967736;28;19910;-62
2022/09/13 12:19:23;;;;;;;4.85;4.18;;;21.50;99.90;;;;;;4967691;28;20340;-63
2022/09/13 12:21:52;;;;;;;5.95;3.88;;;21.40;99.90;;;;;;4968168;28;20395;-61
2022/09/13 12:24:38;;;;;;;42.50;16.40;;;21.50;99.90;;;;;;4963493;28;20027;-62
2022/09/13 12:27:20;;;;;;;4.95;4.20;;;21.50;99.90;;;;;;4987085;28;20026;-62
2022/09/13 12:29:49;;;;;;;5.55;4.43;;;21.50;99.90;;;;;;4986413;28;20038;-61
2022/09/13 12:32:17;;;;;;;6.38;4.22;;;21.40;99.90;;;;;;4989790;28;20355;-61
2022/09/13 12:34:51;;;;;;;6.63;4.63;;;21.30;99.90;;;;;;4989995;28;20117;-62
2022/09/13 12:37:42;;;;;;;6.10;4.45;;;21.10;99.90;;;;;;4985820;28;20027;-62
2022/09/13 12:40:19;;;;;;;5.10;4.60;;;20.90;99.90;;;;;;4989874;28;20050;-61
2022/09/13 12:43:29;;;;;;;8.30;5.03;;;20.90;99.90;;;;;;4992536;28;20034;-61
2022/09/13 12:45:57;;;;;;;10.05;5.95;;;21.00;99.90;;;;;;4992215;28;20042;-60
2022/09/13 12:48:40;;;;;;;9.70;4.97;;;20.90;99.90;;;;;;4989257;28;20034;-61
2022/09/13 12:51:12;;;;;;;9.30;3.92;;;20.70;99.90;;;;;;4992025;28;20041;-61
2022/09/13 12:53:44;;;;;;;9.00;4.30;;;20.60;99.90;;;;;;4990461;28;20046;-61
2022/09/13 12:56:40;;;;;;;9.13;5.00;;;20.50;99.90;;;;;;4988258;28;20035;-61
2022/09/13 12:59:34;;;;;;;8.00;4.55;;;20.50;99.90;;;;;;4985363;28;20378;-61
2022/09/13 13:02:19;;;;;;;15.38;5.60;;;20.50;99.90;;;;;;4983979;28;20035;-63
2022/09/13 13:04:53;;;;;;;13.40;5.18;;;20.40;99.90;;;;;;4989812;28;20027;-63
2022/09/13 13:07:22;;;;;;;5.30;4.25;;;20.50;99.90;;;;;;4988468;28;20034;-62
2022/09/13 13:09:51;;;;;;;6.80;4.30;;;20.50;99.90;;;;;;4992873;28;20097;-61
2022/09/13 13:12:38;;;;;;;8.82;4.65;;;20.50;99.90;;;;;;4989170;28;20031;-61
2022/09/13 13:15:26;;;;;;;6.10;4.20;;;20.50;99.90;;;;;;4986759;28;20121;-61
2022/09/13 13:17:55;;;;;;;7.18;3.88;;;20.50;99.90;;;;;;4989795;28;20018;-61
2022/09/13 13:20:43;;;;;;;8.45;4.20;;;20.50;99.90;;;;;;4987956;28;20108;-61